Charlotte, NC (28206)

11:43 PM EST on December 26, 2014 (GMT -0500)
allen hills | Change Station
CLOSE
Current Station
Personal Weather Station
Location: Charlotte, NC
Elevation: 807 ft
Nearby Weather Stations

Elev 807 ft 35.29 °N, 80.80 °W | Updated 6 seconds ago

Clear
Clear
39.6 °F
Feels Like 40 °F
N
0.0
Wind Variable Wind from East
Gusts 0.0 mph

Today
High -- | Low -- °F
--% Chance of Precip.
Yesterday
High -- | Low -- °F
Precip. -- in
7:30 AM 5:17 PM
Waxing Crescent, 32% visible
Pressure 30.32 in
Visibility 10.0 miles
Clouds Few 22000 ft
Windchill 40 °F
Dew Point 18 °F
Humidity 42%
Rainfall 0.00 in
Snow Depth Not available.
UV 0 out of 12
Pollen .90 out of 12
Air Quality Not available.
Flu Activity Not available.
METAR KCLT 270352Z 00000KT 10SM FEW220 06/01 A3031 RMK AO2 SLP265 T00560006

More Conditions Fewer Conditions

Pressure 30.32 in
Visibility 10.0 miles
Clouds Few 22000 ft
Windchill 40 °F
Dew Point 18 °F
Humidity 42%
Rainfall 0.00 in
Snow Depth Not available.
UV 0 out of 12
Pollen .90 out of 12
Air Quality Not available.
Flu Activity Not available.
METAR KCLT 270352Z 00000KT 10SM FEW220 06/01 A3031 RMK AO2 SLP265 T00560006

More Conditions Fewer Conditions

10-Day Weather Forecast

Almanac

Astronomy

Dec. 26, 2014 Rise Set
Actual Time
Civil Twilight
Nautical Twilight
Astronomical Twilight
Moon
Length of Visible Light
Length of Day
Tomorrow will be .
, % of the Moon is Illuminated

Today's Extremes

State Highs State Lows

Community

WunderPhotos

Upload Photos

1,780,847 photos uploaded!

WunderBlogs® & News

Nearby

Air Quality

  Air Quality AQ Index Pollutant
Not available.

Snow Depth

Station Depth Elevation

Earthquake Activity

City Distance Mag. Time & Date
Minimum magnitude displayed is 2.5.

Coastal Water Temperatures

Place Temperature

Nearby Weather Stations